createdAt,value
2018-09-27T00:00:39.364Z,80.98
2018-09-27T00:03:08.015Z,81.43
2018-09-27T00:05:36.478Z,81.62
2018-09-27T00:08:04.874Z,81.00
2018-09-27T00:10:33.215Z,81.72
2018-09-27T00:13:01.589Z,81.25
2018-09-27T00:15:29.915Z,81.70
2018-09-27T00:17:58.200Z,80.64
2018-09-27T00:20:26.574Z,80.90
2018-09-27T00:22:54.976Z,81.63
2018-09-27T00:25:23.338Z,81.69
2018-09-27T00:27:51.660Z,81.17
2018-09-27T00:30:19.988Z,80.94
2018-09-27T00:32:48.351Z,80.92
2018-09-27T00:35:16.699Z,80.09
2018-09-27T00:37:45.033Z,80.25
2018-09-27T00:40:13.388Z,79.57
2018-09-27T00:42:42.047Z,79.92
2018-09-27T00:45:10.416Z,79.91
2018-09-27T00:47:38.917Z,80.83
2018-09-27T00:50:07.735Z,80.95
2018-09-27T00:52:36.139Z,80.91
2018-09-27T00:55:04.547Z,81.30
2018-09-27T00:57:32.939Z,81.35
2018-09-27T01:00:01.274Z,81.82
2018-09-27T01:02:29.671Z,81.75
2018-09-27T01:04:58.039Z,80.80
2018-09-27T01:07:26.419Z,80.66
2018-09-27T01:09:54.739Z,81.15
2018-09-27T01:12:23.136Z,81.21
2018-09-27T01:14:51.483Z,81.32
2018-09-27T01:17:19.841Z,81.25
2018-09-27T01:19:48.192Z,81.43
2018-09-27T01:22:16.584Z,80.93
2018-09-27T01:24:44.977Z,81.82
2018-09-27T01:27:13.368Z,81.37
2018-09-27T01:29:41.742Z,81.54
2018-09-27T01:32:10.064Z,82.20
2018-09-27T01:34:38.445Z,82.02
2018-09-27T01:37:06.876Z,82.06
2018-09-27T01:39:35.252Z,81.94
2018-09-27T01:42:03.633Z,81.94
2018-09-27T01:44:32.688Z,82.27
2018-09-27T01:47:01.727Z,81.72
2018-09-27T01:49:30.062Z,82.32
2018-09-27T01:51:58.492Z,81.80
2018-09-27T01:54:26.854Z,82.37
2018-09-27T01:56:55.306Z,82.26
2018-09-27T01:59:23.674Z,81.80
2018-09-27T02:01:52.033Z,81.84
2018-09-27T02:04:20.393Z,81.92
2018-09-27T02:06:48.748Z,82.18
2018-09-27T02:09:17.084Z,81.70
2018-09-27T02:11:45.442Z,82.12
2018-09-27T02:14:13.823Z,82.55
2018-09-27T02:16:42.284Z,82.34
2018-09-27T02:19:10.687Z,82.24
2018-09-27T02:21:39.079Z,82.24
2018-09-27T02:24:07.716Z,82.79
2018-09-27T02:26:36.090Z,82.96
2018-09-27T02:29:04.456Z,82.67
2018-09-27T02:31:32.832Z,82.94
2018-09-27T02:34:01.293Z,82.92
2018-09-27T02:36:29.735Z,83.00
2018-09-27T02:38:58.077Z,82.35
2018-09-27T02:41:26.456Z,82.69
2018-09-27T02:43:54.893Z,82.66
2018-09-27T02:46:23.422Z,82.96
2018-09-27T02:48:51.817Z,83.07
2018-09-27T02:51:20.209Z,82.66
2018-09-27T02:53:48.668Z,82.96
2018-09-27T02:56:17.032Z,82.86
2018-09-27T02:58:45.398Z,82.91
2018-09-27T03:01:13.785Z,82.75
2018-09-27T03:03:42.145Z,83.11
2018-09-27T03:06:10.538Z,83.26
2018-09-27T03:08:38.897Z,82.47
2018-09-27T03:11:07.339Z,82.99
2018-09-27T03:13:35.742Z,83.35
2018-09-27T03:16:04.188Z,83.24
2018-09-27T03:18:32.561Z,83.67
2018-09-27T03:21:01.877Z,83.14
2018-09-27T03:23:30.264Z,83.44
2018-09-27T03:25:58.669Z,83.31
2018-09-27T03:28:27.138Z,83.74
2018-09-27T03:30:55.579Z,84.32
2018-09-27T03:33:24.092Z,83.60
2018-09-27T03:35:52.655Z,84.12
2018-09-27T03:38:21.030Z,84.36
2018-09-27T03:40:49.519Z,84.66
2018-09-27T03:43:17.901Z,84.19
2018-09-27T03:45:46.349Z,84.14
2018-09-27T03:48:14.790Z,84.50
2018-09-27T03:50:43.166Z,84.58
2018-09-27T03:53:11.494Z,84.66
2018-09-27T03:55:39.978Z,84.39
2018-09-27T03:58:08.418Z,85.05
2018-09-27T04:00:36.819Z,84.63
2018-09-27T04:03:05.167Z,85.23
2018-09-27T04:05:33.561Z,85.05
2018-09-27T04:08:01.898Z,85.53
2018-09-27T04:10:30.317Z,84.91
2018-09-27T04:12:58.674Z,85.47
2018-09-27T04:15:27.039Z,85.56
2018-09-27T04:17:55.452Z,85.12
2018-09-27T04:20:24.091Z,84.81
2018-09-27T04:22:52.443Z,85.49
2018-09-27T04:25:20.804Z,85.51
2018-09-27T04:27:49.232Z,85.60
2018-09-27T04:30:17.561Z,85.17
2018-09-27T04:32:45.972Z,85.23
2018-09-27T04:35:14.333Z,85.56
2018-09-27T04:37:42.725Z,85.67
2018-09-27T04:40:13.916Z,85.73
2018-09-27T04:42:43.392Z,85.57
2018-09-27T04:45:18.214Z,85.24
2018-09-27T04:47:46.574Z,84.90
2018-09-27T04:50:15.108Z,85.38
2018-09-27T04:52:43.586Z,85.73
2018-09-27T04:55:11.986Z,85.04
2018-09-27T04:57:40.332Z,85.69
2018-09-27T05:00:08.838Z,85.62
2018-09-27T05:02:37.160Z,85.65
2018-09-27T05:05:05.526Z,85.40
2018-09-27T05:07:33.880Z,85.30
2018-09-27T05:10:02.278Z,86.22
2018-09-27T05:12:30.680Z,86.14
2018-09-27T05:14:59.019Z,86.19
2018-09-27T05:17:27.422Z,85.83
2018-09-27T05:19:55.772Z,86.39
2018-09-27T05:22:53.508Z,85.92
2018-09-27T05:25:21.840Z,86.60
2018-09-27T05:27:50.283Z,86.07
2018-09-27T05:30:18.804Z,86.13
2018-09-27T05:32:47.556Z,86.25
2018-09-27T05:35:15.932Z,85.88
2018-09-27T05:37:44.246Z,86.38
2018-09-27T05:40:12.615Z,86.47
2018-09-27T05:42:40.951Z,85.98
2018-09-27T05:45:09.316Z,85.72
2018-09-27T05:47:37.677Z,86.34
2018-09-27T05:50:06.917Z,85.37
2018-09-27T05:52:35.233Z,85.74
2018-09-27T05:55:03.661Z,85.91
2018-09-27T05:57:32.050Z,85.93
2018-09-27T06:00:01.680Z,85.58
2018-09-27T06:02:30.081Z,85.79
2018-09-27T06:04:58.428Z,85.58
2018-09-27T06:07:26.825Z,85.60
2018-09-27T06:09:55.139Z,85.53
2018-09-27T06:12:23.484Z,85.22
2018-09-27T06:14:51.779Z,85.17
2018-09-27T06:17:20.170Z,84.57
2018-09-27T06:19:48.512Z,84.59
2018-09-27T06:22:16.789Z,84.97
2018-09-27T06:24:45.106Z,85.54
2018-09-27T06:27:13.515Z,85.45
2018-09-27T06:29:41.867Z,84.61
2018-09-27T06:32:10.451Z,83.90
2018-09-27T06:34:38.791Z,82.80
2018-09-27T06:37:07.134Z,83.27
2018-09-27T06:39:35.502Z,83.02
2018-09-27T06:42:03.860Z,82.98
2018-09-27T06:44:32.236Z,82.60
2018-09-27T06:47:00.590Z,82.37
2018-09-27T06:49:28.927Z,82.21
2018-09-27T06:52:54.925Z,81.61
2018-09-27T06:55:23.416Z,81.34
2018-09-27T06:57:51.611Z,80.23
2018-09-27T07:00:19.981Z,80.08
2018-09-27T07:02:48.318Z,79.08
2018-09-27T07:05:16.687Z,78.95
2018-09-27T07:07:45.044Z,78.96
2018-09-27T07:10:13.421Z,78.29
2018-09-27T07:12:41.785Z,77.32
2018-09-27T07:15:10.099Z,77.51
2018-09-27T07:17:40.246Z,76.34
2018-09-27T07:20:08.625Z,76.95
2018-09-27T07:22:37.008Z,76.59
2018-09-27T07:25:05.479Z,76.42
2018-09-27T07:27:33.764Z,76.02
2018-09-27T07:30:02.124Z,75.28
2018-09-27T07:32:30.557Z,75.03
2018-09-27T07:34:58.888Z,75.13
2018-09-27T07:37:27.245Z,74.08
2018-09-27T07:39:55.606Z,74.48
2018-09-27T07:42:23.945Z,73.69
2018-09-27T07:44:52.362Z,72.63
2018-09-27T07:47:20.769Z,72.49
2018-09-27T07:49:49.152Z,71.80
2018-09-27T07:52:17.476Z,71.46
2018-09-27T07:54:45.880Z,71.91
2018-09-27T07:57:14.575Z,71.72
2018-09-27T07:59:42.899Z,71.41
2018-09-27T08:02:11.280Z,70.55
2018-09-27T08:04:39.618Z,69.90
2018-09-27T08:07:07.970Z,69.67
2018-09-27T08:09:36.326Z,70.15
2018-09-27T08:12:04.804Z,69.30
2018-09-27T08:14:33.306Z,69.47
2018-09-27T08:17:01.716Z,69.31
2018-09-27T08:19:30.013Z,68.46
2018-09-27T08:21:58.410Z,68.30
2018-09-27T08:24:26.863Z,67.83
2018-09-27T08:26:55.215Z,67.38
2018-09-27T08:29:23.599Z,66.27
2018-09-27T08:31:51.998Z,65.78
2018-09-27T08:34:20.378Z,65.84
2018-09-27T08:36:48.723Z,65.51
2018-09-27T08:39:17.038Z,65.06
2018-09-27T08:41:45.419Z,65.04
2018-09-27T08:44:13.736Z,63.66
2018-09-27T08:46:42.800Z,63.39
2018-09-27T08:49:11.149Z,63.75
2018-09-27T08:51:39.612Z,62.67
2018-09-27T08:54:07.983Z,61.92
2018-09-27T08:56:36.328Z,62.03
2018-09-27T08:59:04.660Z,62.25
2018-09-27T09:01:33.022Z,62.40
2018-09-27T09:04:01.392Z,61.91
2018-09-27T09:06:29.767Z,61.57
2018-09-27T09:08:58.075Z,61.18
2018-09-27T09:11:26.540Z,60.33
2018-09-27T09:13:55.159Z,60.32
2018-09-27T09:16:23.467Z,59.92
2018-09-27T09:18:51.836Z,60.50
2018-09-27T09:21:20.309Z,59.19
2018-09-27T09:23:48.753Z,59.82
2018-09-27T09:26:17.092Z,60.27
2018-09-27T09:28:45.454Z,59.42
2018-09-27T09:31:14.191Z,58.92
2018-09-27T09:33:43.307Z,58.59
2018-09-27T09:36:11.625Z,57.64
2018-09-27T09:38:39.979Z,57.41
2018-09-27T09:41:08.293Z,56.58
2018-09-27T09:43:36.706Z,55.50
2018-09-27T09:46:05.056Z,53.42
2018-09-27T09:48:33.436Z,52.89
2018-09-27T09:51:01.884Z,52.85
2018-09-27T09:53:30.285Z,52.87
2018-09-27T09:55:58.714Z,52.92
2018-09-27T09:58:27.084Z,52.05
2018-09-27T10:00:55.451Z,51.32
2018-09-27T10:03:23.834Z,51.94
2018-09-27T10:05:52.212Z,51.59
2018-09-27T10:08:20.601Z,52.41
2018-09-27T10:10:48.987Z,51.95
2018-09-27T10:13:17.324Z,51.54
2018-09-27T10:15:45.638Z,52.40
2018-09-27T10:18:14.124Z,52.24
2018-09-27T10:20:42.489Z,52.13
2018-09-27T10:23:11.089Z,51.07
2018-09-27T10:25:39.664Z,49.33
2018-09-27T10:28:08.633Z,49.24
2018-09-27T10:30:36.950Z,48.25
2018-09-27T10:33:05.325Z,47.29
2018-09-27T10:35:33.689Z,47.52
2018-09-27T10:38:02.062Z,47.80
2018-09-27T10:40:30.379Z,45.65
2018-09-27T10:42:58.733Z,45.75
2018-09-27T10:45:27.104Z,46.17
2018-09-27T10:47:55.457Z,44.72
2018-09-27T10:50:23.811Z,44.77
2018-09-27T10:52:52.463Z,43.01
2018-09-27T10:55:20.838Z,43.29
2018-09-27T10:57:49.163Z,41.47
2018-09-27T11:00:19.199Z,42.09
2018-09-27T11:02:47.898Z,41.66
2018-09-27T11:05:16.275Z,41.68
2018-09-27T11:07:44.832Z,42.54
2018-09-27T11:10:13.217Z,43.13
2018-09-27T11:12:41.865Z,42.37
2018-09-27T11:15:10.215Z,41.39
2018-09-27T11:17:38.827Z,41.86
2018-09-27T11:20:07.274Z,41.63
2018-09-27T11:22:35.637Z,40.63
2018-09-27T11:25:04.059Z,41.21
2018-09-27T11:27:32.419Z,40.81
2018-09-27T11:30:05.976Z,41.36
2018-09-27T11:32:38.505Z,40.13
2018-09-27T11:35:07.469Z,40.19
2018-09-27T11:37:35.815Z,39.78
2018-09-27T11:40:05.043Z,40.27
2018-09-27T11:42:33.504Z,40.40
2018-09-27T11:45:01.846Z,41.10
2018-09-27T11:47:30.183Z,40.51
2018-09-27T11:49:58.567Z,40.30
2018-09-27T11:52:27.005Z,40.24
2018-09-27T11:54:55.395Z,39.89
2018-09-27T11:57:23.745Z,38.70
2018-09-27T11:59:52.125Z,39.22
2018-09-27T12:02:20.585Z,39.15
2018-09-27T12:04:48.955Z,38.15
2018-09-27T12:07:17.304Z,38.69
2018-09-27T12:09:45.678Z,38.18
2018-09-27T12:12:14.316Z,37.95
2018-09-27T12:14:42.863Z,37.22
2018-09-27T12:17:11.146Z,36.66
2018-09-27T12:19:39.552Z,37.33
2018-09-27T12:22:07.883Z,37.15
2018-09-27T12:24:36.199Z,36.90
2018-09-27T12:27:04.526Z,36.21
2018-09-27T12:29:32.868Z,36.36
2018-09-27T12:32:02.447Z,36.68
2018-09-27T12:34:30.822Z,36.48
2018-09-27T12:36:59.203Z,36.23
2018-09-27T12:39:27.549Z,35.66
2018-09-27T12:41:56.066Z,34.87
2018-09-27T12:44:24.263Z,35.29
2018-09-27T12:46:52.676Z,35.60
2018-09-27T12:49:20.984Z,35.62
2018-09-27T12:51:49.426Z,35.72
2018-09-27T12:54:17.716Z,35.51
2018-09-27T12:56:46.089Z,35.68
2018-09-27T12:59:14.857Z,35.71
2018-09-27T13:01:43.224Z,35.76
2018-09-27T13:04:11.624Z,35.47
2018-09-27T13:06:39.876Z,35.84
2018-09-27T13:09:09.524Z,36.24
2018-09-27T13:11:40.643Z,35.03
2018-09-27T13:14:06.305Z,35.03
2018-09-27T13:16:34.685Z,34.46
2018-09-27T13:19:03.049Z,34.51
2018-09-27T13:21:31.602Z,34.24
2018-09-27T13:23:59.920Z,35.20
2018-09-27T13:26:28.288Z,34.83
2018-09-27T13:28:56.664Z,34.16
2018-09-27T13:31:25.060Z,35.55
2018-09-27T13:33:53.443Z,35.01
2018-09-27T13:36:22.408Z,34.74
2018-09-27T13:38:50.796Z,34.42
2018-09-27T13:41:19.157Z,34.71
2018-09-27T13:43:47.519Z,35.05
2018-09-27T13:46:15.895Z,35.60
2018-09-27T13:48:44.233Z,34.90
2018-09-27T13:51:12.596Z,35.57
2018-09-27T13:53:40.968Z,34.91
2018-09-27T13:56:09.383Z,35.34
2018-09-27T13:58:38.761Z,34.76
2018-09-27T14:01:07.219Z,34.69
2018-09-27T14:03:35.449Z,33.73
2018-09-27T14:06:03.807Z,33.72
2018-09-27T14:08:32.238Z,33.75
2018-09-27T14:11:00.607Z,33.58
2018-09-27T14:13:28.939Z,35.09
2018-09-27T14:15:57.323Z,35.19
2018-09-27T14:18:25.733Z,35.45
2018-09-27T14:20:54.059Z,35.14
2018-09-27T14:23:22.444Z,35.37
2018-09-27T14:25:50.863Z,35.42
2018-09-27T14:28:19.188Z,35.13
2018-09-27T14:30:48.080Z,36.15
2018-09-27T14:33:16.445Z,35.94
2018-09-27T14:35:44.882Z,35.07
2018-09-27T14:38:13.208Z,35.52
2018-09-27T14:40:41.535Z,34.75
2018-09-27T14:43:09.989Z,35.21
2018-09-27T14:45:38.373Z,34.92
2018-09-27T14:48:07.499Z,35.45
2018-09-27T14:50:35.806Z,35.00
2018-09-27T14:53:04.179Z,35.17
2018-09-27T14:55:32.487Z,36.06
2018-09-27T14:58:00.865Z,36.21
2018-09-27T15:00:29.353Z,36.21
2018-09-27T15:02:57.543Z,35.96
2018-09-27T15:05:25.879Z,35.67
2018-09-27T15:07:54.351Z,36.81
2018-09-27T15:10:22.781Z,36.20
2018-09-27T15:12:51.211Z,36.41
2018-09-27T15:15:20.336Z,36.99
2018-09-27T15:17:48.917Z,37.35
2018-09-27T15:20:17.237Z,36.46
2018-09-27T15:22:45.603Z,37.06
2018-09-27T15:25:13.917Z,36.97
2018-09-27T15:27:42.527Z,38.11
2018-09-27T15:30:10.959Z,38.53
2018-09-27T15:32:39.328Z,38.56
2018-09-27T15:35:08.058Z,39.51
2018-09-27T15:37:36.433Z,39.20
2018-09-27T15:40:04.899Z,39.24
2018-09-27T15:42:33.783Z,39.18
2018-09-27T15:45:02.171Z,39.32
2018-09-27T15:47:31.061Z,38.70
2018-09-27T15:49:59.448Z,39.40
2018-09-27T15:52:27.815Z,39.55
2018-09-27T15:54:56.161Z,39.08
2018-09-27T15:57:24.463Z,38.89
2018-09-27T15:59:52.830Z,39.36
2018-09-27T16:02:22.313Z,38.58
2018-09-27T16:04:50.751Z,38.96
2018-09-27T16:07:19.090Z,39.14
2018-09-27T16:09:47.634Z,39.32
2018-09-27T16:12:15.939Z,39.33
2018-09-27T16:14:44.287Z,39.96
2018-09-27T16:17:12.672Z,38.82
2018-09-27T16:19:41.068Z,38.61
2018-09-27T16:22:09.504Z,38.63
2018-09-27T16:24:37.862Z,38.85
2018-09-27T16:27:06.327Z,39.04
2018-09-27T16:29:34.700Z,39.16
2018-09-27T16:32:03.070Z,39.06
2018-09-27T16:34:31.444Z,38.53
2018-09-27T16:36:59.793Z,38.85
2018-09-27T16:39:28.203Z,39.27
2018-09-27T16:41:56.536Z,39.33
2018-09-27T16:44:24.888Z,39.01
2018-09-27T16:46:53.230Z,38.67
2018-09-27T16:49:21.602Z,38.88
2018-09-27T16:51:49.915Z,38.96
2018-09-27T16:54:18.292Z,39.38
2018-09-27T16:56:46.737Z,40.39
2018-09-27T16:59:15.117Z,40.72
2018-09-27T17:01:43.521Z,40.72
2018-09-27T17:04:11.905Z,41.43
2018-09-27T17:06:40.308Z,42.06
2018-09-27T17:09:09.178Z,42.73
2018-09-27T17:11:37.479Z,43.28
2018-09-27T17:14:05.823Z,43.19
2018-09-27T17:16:34.323Z,43.24
2018-09-27T17:19:02.736Z,43.98
2018-09-27T17:21:31.129Z,43.81
2018-09-27T17:23:59.505Z,45.25
2018-09-27T17:26:27.827Z,46.36
2018-09-27T17:28:56.170Z,46.83
2018-09-27T17:31:24.606Z,48.11
2018-09-27T17:33:52.925Z,47.80
2018-09-27T17:36:21.271Z,47.99
2018-09-27T17:38:49.656Z,48.04
2018-09-27T17:41:17.956Z,48.54
2018-09-27T17:43:46.395Z,48.68
2018-09-27T17:46:14.667Z,49.21
2018-09-27T17:48:42.977Z,48.95
2018-09-27T17:51:11.329Z,49.78
2018-09-27T17:53:39.637Z,50.98
2018-09-27T17:56:08.716Z,50.57
2018-09-27T17:58:37.922Z,50.60
2018-09-27T18:01:06.230Z,51.94
2018-09-27T18:03:34.554Z,53.12
2018-09-27T18:06:02.922Z,52.54
2018-09-27T18:08:31.280Z,53.75
2018-09-27T18:10:59.613Z,54.61
2018-09-27T18:13:27.987Z,55.48
2018-09-27T18:15:56.324Z,57.13
2018-09-27T18:18:24.671Z,56.77
2018-09-27T18:20:52.998Z,55.89
2018-09-27T18:23:21.384Z,57.80
2018-09-27T18:25:49.821Z,58.29
2018-09-27T18:28:18.162Z,58.14
2018-09-27T18:30:46.533Z,58.59
2018-09-27T18:33:15.065Z,59.81
2018-09-27T18:35:43.462Z,59.16
2018-09-27T18:38:12.004Z,59.55
2018-09-27T18:40:40.185Z,60.31
2018-09-27T18:43:08.585Z,61.32
2018-09-27T18:45:36.973Z,61.84
2018-09-27T18:48:06.569Z,62.35
2018-09-27T18:50:34.936Z,62.99
2018-09-27T18:53:03.292Z,63.74
2018-09-27T18:55:31.658Z,63.92
2018-09-27T18:58:00.371Z,64.52
2018-09-27T19:00:28.713Z,65.13
2018-09-27T19:02:57.101Z,65.21
2018-09-27T19:05:25.427Z,65.50
2018-09-27T19:07:54.740Z,66.70
2018-09-27T19:10:23.124Z,66.38
2018-09-27T19:12:51.485Z,67.05
2018-09-27T19:15:19.839Z,67.55
2018-09-27T19:17:48.167Z,67.46
2018-09-27T19:20:16.531Z,67.88
2018-09-27T19:22:44.931Z,68.80
2018-09-27T19:25:13.236Z,68.97
2018-09-27T19:27:41.593Z,68.49
2018-09-27T19:30:10.003Z,69.30
2018-09-27T19:32:38.374Z,69.43
2018-09-27T19:35:06.821Z,69.53
2018-09-27T19:37:35.188Z,69.92
2018-09-27T19:40:03.562Z,70.08
2018-09-27T19:42:31.995Z,69.91
2018-09-27T19:45:00.360Z,70.91
2018-09-27T19:47:28.689Z,70.66
2018-09-27T19:49:57.073Z,71.25
2018-09-27T19:52:25.424Z,71.27
2018-09-27T19:54:53.965Z,71.55
2018-09-27T19:57:22.405Z,71.13
2018-09-27T19:59:50.799Z,71.33
2018-09-27T20:02:19.155Z,71.96
2018-09-27T20:04:47.488Z,71.96
2018-09-27T20:07:15.999Z,72.59
2018-09-27T20:09:44.374Z,72.68
2018-09-27T20:12:12.737Z,72.76
2018-09-27T20:14:41.047Z,72.84
2018-09-27T20:17:09.542Z,72.42
2018-09-27T20:19:37.881Z,73.10
2018-09-27T20:22:08.091Z,73.31
2018-09-27T20:24:36.357Z,73.34
2018-09-27T20:27:04.735Z,73.34
2018-09-27T20:29:33.112Z,73.71
2018-09-27T20:32:01.447Z,74.05
2018-09-27T20:34:29.864Z,73.79
2018-09-27T20:36:58.222Z,74.25
2018-09-27T20:39:26.603Z,74.57
2018-09-27T20:41:55.161Z,74.99
2018-09-27T20:44:23.539Z,74.83
2018-09-27T20:46:52.008Z,75.01
2018-09-27T20:49:20.363Z,74.75
2018-09-27T20:51:48.764Z,74.81
2018-09-27T20:54:17.114Z,75.54
2018-09-27T20:56:45.532Z,75.96
2018-09-27T20:59:13.892Z,75.66
2018-09-27T21:01:42.283Z,75.76
2018-09-27T21:04:10.772Z,75.54
2018-09-27T21:06:39.949Z,75.97
2018-09-27T21:09:10.311Z,76.19
2018-09-27T21:11:38.847Z,76.83
2018-09-27T21:14:07.398Z,76.18
2018-09-27T21:16:35.711Z,76.92
2018-09-27T21:19:04.119Z,76.67
2018-09-27T21:21:32.448Z,76.59
2018-09-27T21:24:01.663Z,76.56
2018-09-27T21:26:30.475Z,77.33
2018-09-27T21:28:58.837Z,76.72
2018-09-27T21:31:28.450Z,77.26
2018-09-27T21:33:56.813Z,77.12
2018-09-27T21:36:25.433Z,77.36
2018-09-27T21:38:53.784Z,77.51
2018-09-27T21:41:22.254Z,78.22
2018-09-27T21:43:50.879Z,77.65
2018-09-27T21:46:19.511Z,78.03
2018-09-27T21:48:48.038Z,77.62
2018-09-27T21:51:16.381Z,77.96
2018-09-27T21:53:44.712Z,78.10
2018-09-27T21:56:13.135Z,78.43
2018-09-27T21:58:41.481Z,77.94
2018-09-27T22:01:09.966Z,78.58
2018-09-27T22:03:38.294Z,78.68
2018-09-27T22:06:06.681Z,78.64
2018-09-27T22:08:35.060Z,79.21
2018-09-27T22:11:03.398Z,78.96
2018-09-27T22:13:31.777Z,79.08
2018-09-27T22:16:00.118Z,79.30
2018-09-27T22:18:28.519Z,79.68
2018-09-27T22:20:56.874Z,79.24
2018-09-27T22:23:25.227Z,79.64
2018-09-27T22:25:53.690Z,79.83
2018-09-27T22:28:22.069Z,80.09
2018-09-27T22:30:50.431Z,80.07
2018-09-27T22:33:18.817Z,80.28
2018-09-27T22:35:47.199Z,80.22
2018-09-27T22:38:15.569Z,80.87
2018-09-27T22:40:43.939Z,80.90
2018-09-27T22:43:12.299Z,81.01
2018-09-27T22:45:40.690Z,80.42
2018-09-27T22:48:09.074Z,80.44
2018-09-27T22:50:37.439Z,80.21
2018-09-27T22:53:05.807Z,80.68
2018-09-27T22:55:34.170Z,80.26
2018-09-27T22:58:02.524Z,80.40
2018-09-27T23:00:31.002Z,80.73
2018-09-27T23:02:59.349Z,80.78
2018-09-27T23:05:27.725Z,80.39
2018-09-27T23:07:56.104Z,80.40
2018-09-27T23:10:24.494Z,81.19
2018-09-27T23:12:52.841Z,81.28
2018-09-27T23:15:21.193Z,81.28
2018-09-27T23:17:49.567Z,80.93
2018-09-27T23:20:17.965Z,81.66
2018-09-27T23:22:46.269Z,81.44
2018-09-27T23:25:14.644Z,80.99
2018-09-27T23:27:43.025Z,81.48
2018-09-27T23:30:11.379Z,81.09
2018-09-27T23:32:41.732Z,81.19
2018-09-27T23:35:10.125Z,81.33
2018-09-27T23:37:38.461Z,81.51
2018-09-27T23:40:07.140Z,81.44
2018-09-27T23:42:35.428Z,81.66
2018-09-27T23:45:03.893Z,81.34
2018-09-27T23:47:53.041Z,81.42
2018-09-27T23:50:22.324Z,81.56
2018-09-27T23:52:50.653Z,81.80
2018-09-27T23:55:19.049Z,81.43
2018-09-27T23:57:47.409Z,81.33
